createdAt,value
2023-09-13T00:04:35.092Z,18.38
2023-09-13T00:09:42.242Z,15.50
2023-09-13T00:14:44.359Z,21.67
2023-09-13T00:19:46.445Z,17.13
2023-09-13T00:24:48.567Z,19.60
2023-09-13T00:29:50.647Z,19.58
2023-09-13T00:34:52.693Z,16.02
2023-09-13T00:39:54.892Z,20.30
2023-09-13T00:44:57.075Z,26.67
2023-09-13T00:50:00.493Z,20.55
2023-09-13T00:55:05.694Z,25.80
2023-09-13T01:00:12.309Z,19.27
2023-09-13T01:05:16.221Z,22.48
2023-09-13T01:10:19.865Z,20.90
2023-09-13T01:15:24.199Z,20.20
2023-09-13T01:21:07.188Z,20.40
2023-09-13T01:27:06.727Z,27.05
2023-09-13T01:32:08.908Z,26.23
2023-09-13T01:37:11.076Z,19.52
2023-09-13T01:42:14.556Z,22.50
2023-09-13T01:47:18.697Z,24.80
2023-09-13T01:52:21.055Z,21.88
2023-09-13T01:57:23.143Z,25.10
2023-09-13T02:02:25.392Z,24.35
2023-09-13T02:07:27.534Z,26.25
2023-09-13T02:12:29.584Z,26.95
2023-09-13T02:17:33.689Z,28.50
2023-09-13T02:22:35.819Z,28.08
2023-09-13T02:27:39.282Z,26.05
2023-09-13T02:32:42.283Z,24.70
2023-09-13T02:37:44.550Z,24.15
2023-09-13T02:42:46.835Z,29.27
2023-09-13T02:47:48.992Z,23.25
2023-09-13T02:52:51.652Z,26.75
2023-09-13T02:57:56.828Z,23.45
2023-09-13T03:02:59.540Z,28.95
2023-09-13T03:08:02.353Z,23.38
2023-09-13T03:13:05.033Z,25.27
2023-09-13T03:18:07.525Z,29.83
2023-09-13T03:23:09.728Z,26.83
2023-09-13T03:28:12.229Z,27.52
2023-09-13T03:33:14.512Z,26.85
2023-09-13T03:38:17.844Z,26.00
2023-09-13T03:43:20.185Z,26.67
2023-09-13T03:48:23.021Z,27.58
2023-09-13T03:53:26.123Z,25.67
2023-09-13T03:58:28.633Z,30.30
2023-09-13T04:03:31.565Z,29.85
2023-09-13T04:08:33.730Z,24.90
2023-09-13T04:13:36.078Z,31.88
2023-09-13T04:18:38.976Z,28.55
2023-09-13T04:23:41.167Z,34.28
2023-09-13T04:28:43.297Z,31.38
2023-09-13T04:33:49.882Z,29.15
2023-09-13T04:38:54.230Z,25.33
2023-09-13T04:43:56.526Z,28.73
2023-09-13T04:48:58.738Z,32.80
2023-09-13T04:54:02.111Z,34.05
2023-09-13T04:59:05.838Z,35.30
2023-09-13T05:04:08.450Z,29.48
2023-09-13T05:09:10.725Z,28.85
2023-09-13T05:14:14.238Z,25.73
2023-09-13T05:19:16.350Z,24.63
2023-09-13T05:24:18.762Z,27.75
2023-09-13T05:29:20.954Z,17.67
2023-09-13T05:34:23.107Z,21.77
2023-09-13T05:39:27.613Z,15.35
2023-09-13T05:44:29.785Z,19.75
2023-09-13T05:49:32.037Z,22.38
2023-09-13T05:54:34.243Z,20.63
2023-09-13T05:59:40.983Z,22.15
2023-09-13T06:04:43.383Z,15.65
2023-09-13T06:09:45.617Z,18.25
2023-09-13T06:14:48.078Z,19.45
2023-09-13T06:19:51.313Z,17.63
2023-09-13T06:24:53.608Z,21.40
2023-09-13T06:29:55.744Z,16.98
2023-09-13T06:34:59.442Z,14.50
2023-09-13T06:40:02.268Z,14.70
2023-09-13T06:50:15.729Z,14.40
2023-09-13T06:55:19.034Z,15.77
2023-09-13T07:00:30.820Z,17.27
2023-09-13T07:05:38.520Z,14.65
2023-09-13T07:10:40.595Z,19.10
2023-09-13T07:15:42.679Z,12.88
2023-09-13T07:20:44.803Z,14.55
2023-09-13T07:25:49.515Z,12.90
2023-09-13T07:30:51.823Z,9.60
2023-09-13T07:35:53.965Z,8.73
2023-09-13T07:40:56.086Z,10.60
2023-09-13T07:45:58.249Z,6.03
2023-09-13T07:51:00.310Z,6.25
2023-09-13T07:56:03.918Z,7.72
2023-09-13T08:01:06.264Z,5.80
2023-09-13T08:06:08.404Z,10.75
2023-09-13T08:11:10.840Z,7.50
2023-09-13T08:16:14.096Z,10.90
2023-09-13T08:21:16.258Z,6.90
2023-09-13T08:26:28.007Z,5.68
2023-09-13T08:31:30.726Z,11.55
2023-09-13T08:36:34.755Z,8.07
2023-09-13T08:41:37.056Z,6.40
2023-09-13T08:46:39.894Z,8.82
2023-09-13T08:51:42.872Z,9.30
2023-09-13T08:56:46.954Z,7.38
2023-09-13T09:01:51.708Z,14.75
2023-09-13T09:06:54.469Z,10.70
2023-09-13T09:12:01.025Z,8.07
2023-09-13T09:17:04.206Z,7.72
2023-09-13T09:22:09.290Z,7.40
2023-09-13T09:27:13.648Z,8.07
2023-09-13T09:32:16.313Z,11.13
2023-09-13T09:37:19.357Z,7.05
2023-09-13T09:42:21.391Z,7.13
2023-09-13T09:47:23.533Z,7.70
2023-09-13T09:52:25.666Z,11.60
2023-09-13T09:57:27.834Z,7.40
2023-09-13T10:02:30.374Z,5.93
2023-09-13T10:07:42.290Z,5.28
2023-09-13T10:12:46.030Z,4.40
2023-09-13T10:17:49.859Z,8.00
2023-09-13T10:22:55.831Z,4.38
2023-09-13T10:28:02.559Z,9.98
2023-09-13T10:33:07.941Z,4.85
2023-09-13T10:38:16.532Z,3.97
2023-09-13T10:43:21.833Z,3.20
2023-09-13T10:48:25.704Z,5.60
2023-09-13T10:53:28.559Z,8.45
2023-09-13T10:58:32.809Z,7.53
2023-09-13T11:03:35.095Z,5.47
2023-09-13T11:08:37.889Z,3.65
2023-09-13T11:13:40.122Z,3.42
2023-09-13T11:18:58.476Z,7.47
2023-09-13T11:24:04.340Z,6.03
2023-09-13T11:29:26.158Z,5.65
2023-09-13T11:34:29.058Z,4.18
2023-09-13T11:39:31.812Z,5.50
2023-09-13T11:44:34.586Z,8.18
2023-09-13T11:49:43.118Z,4.80
2023-09-13T11:55:05.348Z,4.47
2023-09-13T12:00:16.654Z,3.60
2023-09-13T12:05:29.992Z,5.00
2023-09-13T12:10:40.892Z,6.28
2023-09-13T12:16:04.332Z,4.20
2023-09-13T12:21:08.467Z,6.95
2023-09-13T12:26:12.796Z,5.28
2023-09-13T12:31:16.179Z,6.78
2023-09-13T12:36:19.036Z,4.88
2023-09-13T12:41:22.801Z,5.03
2023-09-13T12:46:28.291Z,3.53
2023-09-13T12:51:34.695Z,3.80
2023-09-13T12:56:38.805Z,3.95
2023-09-13T13:01:41.345Z,5.40
2023-09-13T13:06:59.113Z,5.38
2023-09-13T13:12:01.539Z,5.07
2023-09-13T13:17:03.819Z,7.45
2023-09-13T13:22:11.757Z,9.82
2023-09-13T13:27:14.397Z,6.22
2023-09-13T13:32:17.699Z,7.60
2023-09-13T13:37:20.068Z,12.10
2023-09-13T13:42:22.215Z,9.88
2023-09-13T13:47:42.828Z,9.60
2023-09-13T13:52:45.003Z,3.53
2023-09-13T13:57:47.169Z,5.85
2023-09-13T14:02:51.127Z,5.90
2023-09-13T14:07:53.243Z,7.25
2023-09-13T14:12:58.101Z,6.88
2023-09-13T14:18:00.382Z,10.90
2023-09-13T14:23:02.883Z,10.40
2023-09-13T14:28:10.663Z,6.28
2023-09-13T14:33:18.058Z,7.95
2023-09-13T14:38:21.983Z,7.53
2023-09-13T14:43:24.076Z,9.77
2023-09-13T14:48:26.482Z,14.48
2023-09-13T14:53:28.742Z,28.58
2023-09-13T14:58:33.538Z,29.40
2023-09-13T15:03:39.171Z,43.22
2023-09-13T15:08:49.627Z,45.22
2023-09-13T15:13:51.862Z,11.70
2023-09-13T15:18:58.042Z,21.92
2023-09-13T15:24:03.586Z,17.95
2023-09-13T15:29:05.834Z,13.70
2023-09-13T15:34:11.573Z,13.10
2023-09-13T15:39:13.939Z,14.30
2023-09-13T15:44:21.851Z,23.50
2023-09-13T15:49:26.555Z,15.38
2023-09-13T15:54:28.703Z,16.15
2023-09-13T15:59:33.606Z,20.88
2023-09-13T16:04:35.845Z,9.65
2023-09-13T16:09:37.992Z,14.05
2023-09-13T16:14:40.437Z,13.00
2023-09-13T16:19:42.720Z,18.83
2023-09-13T16:24:45.218Z,11.55
2023-09-13T16:29:47.461Z,12.98
2023-09-13T16:34:49.733Z,14.18
2023-09-13T16:39:52.183Z,9.57
2023-09-13T16:44:54.349Z,14.48
2023-09-13T16:49:56.605Z,16.58
2023-09-13T16:54:58.878Z,19.63
2023-09-13T17:00:01.120Z,20.98
2023-09-13T17:05:04.963Z,12.77
2023-09-13T17:10:07.525Z,13.10
2023-09-13T17:15:10.044Z,11.55
2023-09-13T17:20:12.412Z,18.77
2023-09-13T17:25:14.442Z,21.90
2023-09-13T17:30:16.563Z,21.02
2023-09-13T17:35:18.769Z,13.52
2023-09-13T17:40:21.114Z,25.23
2023-09-13T17:45:23.348Z,18.85
2023-09-13T17:50:25.468Z,15.63
2023-09-13T17:55:27.674Z,13.57
2023-09-13T18:00:30.178Z,12.27
2023-09-13T18:05:32.402Z,23.25
2023-09-13T18:10:34.667Z,32.75
2023-09-13T18:15:36.922Z,21.92
2023-09-13T18:20:40.287Z,17.75
2023-09-13T18:25:42.476Z,26.90
2023-09-13T18:30:44.632Z,20.85
2023-09-13T18:35:46.840Z,22.67
2023-09-13T18:40:49.018Z,25.25
2023-09-13T18:46:01.244Z,23.05
2023-09-13T18:51:04.880Z,17.52
2023-09-13T18:56:07.206Z,18.25
2023-09-13T19:01:09.726Z,22.23
2023-09-13T19:06:13.327Z,18.60
2023-09-13T19:11:15.746Z,24.95
2023-09-13T19:16:17.966Z,20.23
2023-09-13T19:21:20.261Z,17.88
2023-09-13T19:26:23.408Z,17.58
2023-09-13T19:31:26.547Z,14.98
2023-09-13T19:36:28.791Z,19.58
2023-09-13T19:41:30.973Z,18.23
2023-09-13T19:46:33.214Z,20.60
2023-09-13T19:51:35.396Z,18.63
2023-09-13T19:56:37.579Z,16.35
2023-09-13T20:01:39.708Z,19.33
2023-09-13T20:06:42.269Z,28.13
2023-09-13T20:11:44.855Z,21.65
2023-09-13T20:16:46.945Z,21.38
2023-09-13T20:21:49.113Z,21.02
2023-09-13T20:26:51.904Z,17.90
2023-09-13T20:31:54.128Z,17.08
2023-09-13T20:36:56.297Z,18.95
2023-09-13T20:41:58.401Z,19.70
2023-09-13T20:47:00.999Z,23.05
2023-09-13T20:52:03.572Z,19.58
2023-09-13T20:57:08.648Z,28.00
2023-09-13T21:02:10.771Z,22.58
2023-09-13T21:07:12.885Z,27.15
2023-09-13T21:12:15.054Z,16.88
2023-09-13T21:17:17.153Z,23.30
2023-09-13T21:22:19.263Z,21.35
2023-09-13T21:27:22.036Z,17.95
2023-09-13T21:32:24.349Z,15.38
2023-09-13T21:37:26.571Z,21.40
2023-09-13T21:42:28.882Z,23.95
2023-09-13T21:47:31.084Z,21.20
2023-09-13T21:52:33.185Z,22.95
2023-09-13T21:57:39.266Z,21.65
2023-09-13T22:02:41.477Z,20.23
2023-09-13T22:07:45.037Z,27.65
2023-09-13T22:12:47.271Z,15.63
2023-09-13T22:17:51.416Z,22.35
2023-09-13T22:22:53.771Z,19.02
2023-09-13T22:27:55.893Z,16.98
2023-09-13T22:32:58.050Z,17.88
2023-09-13T22:38:00.214Z,20.25
2023-09-13T22:43:03.056Z,18.92
2023-09-13T22:48:07.342Z,16.85
2023-09-13T22:53:09.559Z,22.38
2023-09-13T22:58:11.639Z,22.95
2023-09-13T23:03:14.563Z,15.70
2023-09-13T23:08:17.645Z,16.63
2023-09-13T23:13:19.730Z,17.40
2023-09-13T23:18:23.204Z,22.17
2023-09-13T23:23:26.464Z,21.88
2023-09-13T23:28:28.595Z,18.83
2023-09-13T23:33:30.808Z,17.23
2023-09-13T23:38:33.658Z,17.55
2023-09-13T23:43:37.019Z,20.52
2023-09-13T23:48:41.168Z,15.63
2023-09-13T23:53:50.100Z,19.45
2023-09-13T23:58:54.923Z,16.35
